createdAt,value
2022-12-25T00:01:46.391Z,100669.78
2022-12-25T00:04:13.699Z,100667.06
2022-12-25T00:06:41.001Z,100666.41
2022-12-25T00:09:08.227Z,100663.00
2022-12-25T00:11:35.733Z,100662.19
2022-12-25T00:14:03.025Z,100660.28
2022-12-25T00:16:30.268Z,100668.19
2022-12-25T00:18:59.036Z,100664.56
2022-12-25T00:21:26.803Z,100667.16
2022-12-25T00:23:59.009Z,100662.78
2022-12-25T00:26:27.702Z,100667.97
2022-12-25T00:28:57.387Z,100663.69
2022-12-25T00:31:26.985Z,100659.13
2022-12-25T00:33:54.718Z,100664.47
2022-12-25T00:36:23.679Z,100667.97
2022-12-25T00:38:51.039Z,100676.81
2022-12-25T00:41:42.610Z,100673.19
2022-12-25T00:44:13.732Z,100675.91
2022-12-25T00:46:42.495Z,100681.22
2022-12-25T00:49:11.696Z,100682.13
2022-12-25T00:51:39.580Z,100675.09
2022-12-25T00:54:07.417Z,100680.41
2022-12-25T00:56:35.660Z,100689.13
2022-12-25T00:59:03.300Z,100683.81
2022-12-25T01:01:30.913Z,100683.81
2022-12-25T01:03:58.802Z,100683.72
2022-12-25T01:06:26.615Z,100682.78
2022-12-25T01:09:12.809Z,100683.72
2022-12-25T01:11:39.843Z,100689.13
2022-12-25T01:14:08.344Z,100696.16
2022-12-25T01:16:36.081Z,100692.66
2022-12-25T01:19:04.682Z,100701.47
2022-12-25T01:21:32.888Z,100698.09
2022-12-25T01:24:00.080Z,100708.28
2022-12-25T01:26:28.264Z,100708.28
2022-12-25T01:29:01.594Z,100706.44
2022-12-25T01:31:29.045Z,100709.84
2022-12-25T01:33:56.429Z,100715.84
2022-12-25T01:36:26.338Z,100719.34
2022-12-25T01:38:56.713Z,100723.66
2022-12-25T01:41:25.475Z,100722.63
2022-12-25T01:44:15.836Z,100713.91
2022-12-25T01:46:44.192Z,100723.44
2022-12-25T01:49:19.024Z,100723.31
2022-12-25T01:52:24.335Z,100720.84
2022-12-25T01:55:04.441Z,100725.34
2022-12-25T01:57:36.923Z,100728.88
2022-12-25T02:00:12.322Z,100729.88
2022-12-25T02:02:43.324Z,100727.25
2022-12-25T02:05:25.186Z,100731.47
2022-12-25T02:07:56.940Z,100731.25
2022-12-25T02:10:25.501Z,100730.44
2022-12-25T02:12:53.295Z,100731.34
2022-12-25T02:15:28.156Z,100728.63
2022-12-25T02:18:46.415Z,100716.38
2022-12-25T02:22:27.193Z,100731.25
2022-12-25T02:25:53.888Z,100727.84
2022-12-25T02:28:40.188Z,100714.59
2022-12-25T02:31:38.312Z,100724.19
2022-12-25T02:34:38.537Z,100716.16
2022-12-25T02:37:39.205Z,100726.69
2022-12-25T02:40:31.398Z,100719.81
2022-12-25T02:43:24.282Z,100718.13
2022-12-25T02:46:23.522Z,100716.28
2022-12-25T02:49:20.377Z,100715.94
2022-12-25T02:52:25.308Z,100716.16
2022-12-25T02:55:20.501Z,100716.03
2022-12-25T02:58:13.746Z,100718.53
2022-12-25T03:01:10.964Z,100724.78
2022-12-25T03:04:02.143Z,100726.56
2022-12-25T03:06:42.984Z,100716.16
2022-12-25T03:09:43.618Z,100718.88
2022-12-25T03:12:39.764Z,100724.31
2022-12-25T03:15:30.859Z,100726.81
2022-12-25T03:18:08.453Z,100725.81
2022-12-25T03:20:59.383Z,100718.00
2022-12-25T03:23:56.210Z,100723.09
2022-12-25T03:26:48.460Z,100720.25
2022-12-25T03:29:35.750Z,100719.34
2022-12-25T03:32:37.142Z,100715.81
2022-12-25T03:35:27.741Z,100715.69
2022-12-25T03:39:23.238Z,100719.34
2022-12-25T03:42:17.463Z,100714.94
2022-12-25T03:45:24.160Z,100717.75
2022-12-25T03:47:53.755Z,100712.78
2022-12-25T03:50:56.243Z,100717.09
2022-12-25T03:54:16.756Z,100717.75
2022-12-25T03:57:05.755Z,100717.53
2022-12-25T03:59:51.919Z,100722.75
2022-12-25T04:02:38.221Z,100717.31
2022-12-25T04:05:27.403Z,100722.75
2022-12-25T04:08:13.490Z,100715.03
2022-12-25T04:10:59.535Z,100715.81
2022-12-25T04:13:50.577Z,100718.53
2022-12-25T04:16:36.648Z,100709.84
2022-12-25T04:19:22.702Z,100722.50
2022-12-25T04:22:08.697Z,100725.88
2022-12-25T04:24:54.584Z,100726.09
2022-12-25T04:27:40.641Z,100723.28
2022-12-25T04:30:28.689Z,100725.22
2022-12-25T04:33:18.479Z,100724.19
2022-12-25T04:36:07.684Z,100733.56
2022-12-25T04:38:35.617Z,100733.56
2022-12-25T04:41:04.034Z,100735.53
2022-12-25T04:43:33.719Z,100732.91
2022-12-25T04:46:05.017Z,100731.66
2022-12-25T04:48:36.752Z,100729.84
2022-12-25T04:51:30.403Z,100731.66
2022-12-25T04:53:59.307Z,100740.13
2022-12-25T04:56:26.566Z,100730.63
2022-12-25T04:58:53.765Z,100732.44
2022-12-25T05:01:22.323Z,100730.63
2022-12-25T05:03:49.670Z,100734.13
2022-12-25T05:06:17.334Z,100728.00
2022-12-25T05:08:44.852Z,100729.72
2022-12-25T05:11:16.098Z,100730.63
2022-12-25T05:13:43.539Z,100737.66
2022-12-25T05:16:20.982Z,100734.00
2022-12-25T05:18:52.655Z,100738.53
2022-12-25T05:21:20.634Z,100737.88
2022-12-25T05:23:53.131Z,100738.75
2022-12-25T05:26:25.310Z,100741.38
2022-12-25T05:28:55.934Z,100737.66
2022-12-25T05:31:26.128Z,100738.41
2022-12-25T05:33:53.542Z,100734.00
2022-12-25T05:36:23.783Z,100742.63
2022-12-25T05:38:51.185Z,100747.81
2022-12-25T05:41:18.564Z,100743.50
2022-12-25T05:43:46.095Z,100740.91
2022-12-25T05:46:15.496Z,100743.75
2022-12-25T05:48:45.541Z,100746.22
2022-12-25T05:51:15.216Z,100746.91
2022-12-25T05:53:43.643Z,100757.31
2022-12-25T05:56:11.301Z,100752.47
2022-12-25T05:58:40.883Z,100758.47
2022-12-25T06:01:23.135Z,100758.47
2022-12-25T06:03:50.550Z,100765.47
2022-12-25T06:06:18.444Z,100764.44
2022-12-25T06:08:45.869Z,100763.44
2022-12-25T06:11:15.118Z,100766.81
2022-12-25T06:13:42.969Z,100761.72
2022-12-25T06:16:12.698Z,100768.63
2022-12-25T06:18:48.716Z,100772.69
2022-12-25T06:21:18.264Z,100769.97
2022-12-25T06:23:45.901Z,100768.16
2022-12-25T06:26:18.777Z,100766.31
2022-12-25T06:28:46.851Z,100769.72
2022-12-25T06:31:24.828Z,100771.28
2022-12-25T06:33:55.467Z,100773.00
2022-12-25T06:36:26.795Z,100775.84
2022-12-25T06:38:54.419Z,100782.19
2022-12-25T06:41:26.098Z,100778.94
2022-12-25T06:43:58.235Z,100775.16
2022-12-25T06:46:29.953Z,100774.00
2022-12-25T06:48:59.720Z,100779.22
2022-12-25T06:51:31.591Z,100792.34
2022-12-25T06:54:03.979Z,100789.88
2022-12-25T06:56:36.089Z,100795.19
2022-12-25T06:59:10.231Z,100799.75
2022-12-25T07:01:50.837Z,100794.53
2022-12-25T07:04:44.707Z,100801.44
2022-12-25T07:07:12.337Z,100806.88
2022-12-25T07:09:42.235Z,100800.09
2022-12-25T07:12:24.377Z,100796.69
2022-12-25T07:14:56.422Z,100809.03
2022-12-25T07:17:24.571Z,100811.50
2022-12-25T07:19:52.176Z,100810.50
2022-12-25T07:22:19.808Z,100813.88
2022-12-25T07:24:47.258Z,100817.28
2022-12-25T07:27:14.655Z,100819.75
2022-12-25T07:29:49.544Z,100820.78
2022-12-25T07:32:16.756Z,100824.28
2022-12-25T07:34:44.144Z,100835.59
2022-12-25T07:37:11.694Z,100837.41
2022-12-25T07:39:39.159Z,100839.38
2022-12-25T07:42:07.394Z,100848.06
2022-12-25T07:44:34.675Z,100842.22
2022-12-25T07:47:02.058Z,100841.28
2022-12-25T07:49:29.491Z,100846.59
2022-12-25T07:54:31.553Z,100850.66
2022-12-25T07:56:58.751Z,100849.78
2022-12-25T07:59:26.427Z,100863.66
2022-12-25T08:01:54.077Z,100860.19
2022-12-25T08:04:24.931Z,100862.78
2022-12-25T08:06:52.575Z,100864.59
2022-12-25T08:09:54.153Z,100872.50
2022-12-25T08:12:12.694Z,100873.19
2022-12-25T08:14:41.173Z,100873.44
2022-12-25T08:17:09.828Z,100875.13
2022-12-25T08:19:40.258Z,100877.84
2022-12-25T08:22:08.146Z,100884.09
2022-12-25T08:24:35.954Z,100880.69
2022-12-25T08:27:04.563Z,100881.84
2022-12-25T08:29:33.554Z,100882.84
2022-12-25T08:32:05.969Z,100875.03
2022-12-25T08:34:39.992Z,100884.56
2022-12-25T08:37:07.787Z,100891.56
2022-12-25T08:39:41.148Z,100901.06
2022-12-25T08:42:08.735Z,100894.41
2022-12-25T08:44:40.975Z,100901.41
2022-12-25T08:47:10.921Z,100906.28
2022-12-25T08:49:39.147Z,100905.38
2022-12-25T08:52:12.084Z,100909.00
2022-12-25T08:54:46.787Z,100913.44
2022-12-25T08:57:21.561Z,100919.75
2022-12-25T08:59:49.318Z,100920.69
2022-12-25T09:02:21.786Z,100919.88
2022-12-25T09:04:53.039Z,100917.16
2022-12-25T09:07:20.661Z,100928.72
2022-12-25T09:09:56.899Z,100929.09
2022-12-25T09:12:24.711Z,100923.31
2022-12-25T09:14:54.765Z,100924.84
2022-12-25T09:17:25.379Z,100921.16
2022-12-25T09:19:55.449Z,100925.09
2022-12-25T09:22:27.507Z,100927.19
2022-12-25T09:25:01.301Z,100938.84
2022-12-25T09:27:33.529Z,100939.31
2022-12-25T09:30:05.833Z,100934.56
2022-12-25T09:32:33.664Z,100945.00
2022-12-25T09:35:01.195Z,100945.09
2022-12-25T09:37:29.452Z,100942.84
2022-12-25T09:39:57.626Z,100936.53
2022-12-25T09:42:31.479Z,100938.22
2022-12-25T09:45:12.407Z,100943.56
2022-12-25T09:47:56.545Z,100949.22
2022-12-25T09:51:00.422Z,100945.97
2022-12-25T09:53:41.995Z,100953.22
2022-12-25T09:56:30.300Z,100950.97
2022-12-25T09:59:00.098Z,100942.09
2022-12-25T10:01:44.836Z,100941.66
2022-12-25T10:04:41.361Z,100935.31
2022-12-25T10:08:09.209Z,100933.84
2022-12-25T10:11:02.199Z,100930.09
2022-12-25T10:14:08.451Z,100925.34
2022-12-25T10:17:02.366Z,100916.16
2022-12-25T10:19:57.001Z,100921.25
2022-12-25T10:22:57.594Z,100915.38
2022-12-25T10:25:38.315Z,100921.38
2022-12-25T10:28:47.818Z,100926.34
2022-12-25T10:31:22.817Z,100925.31
2022-12-25T10:33:53.777Z,100924.88
2022-12-25T10:36:27.256Z,100920.34
2022-12-25T10:38:55.904Z,100918.44
2022-12-25T10:42:19.706Z,100929.31
2022-12-25T10:45:09.351Z,100931.91
2022-12-25T10:47:42.556Z,100927.81
2022-12-25T10:50:17.317Z,100927.13
2022-12-25T10:53:05.678Z,100920.22
2022-12-25T10:55:33.502Z,100911.25
2022-12-25T10:58:02.254Z,100915.09
2022-12-25T11:00:32.646Z,100914.31
2022-12-25T11:03:00.877Z,100925.19
2022-12-25T11:05:31.201Z,100914.44
2022-12-25T11:08:02.913Z,100916.47
2022-12-25T11:10:38.889Z,100910.56
2022-12-25T11:13:16.419Z,100904.00
2022-12-25T11:15:48.628Z,100894.78
2022-12-25T11:18:49.389Z,100901.69
2022-12-25T11:21:37.863Z,100894.00
2022-12-25T11:24:19.834Z,100894.34
2022-12-25T11:26:55.651Z,100887.41
2022-12-25T11:29:51.782Z,100895.38
2022-12-25T11:32:46.946Z,100888.75
2022-12-25T11:35:18.507Z,100892.50
2022-12-25T11:37:50.996Z,100888.09
2022-12-25T11:40:53.967Z,100878.47
2022-12-25T11:43:39.736Z,100872.00
2022-12-25T11:46:28.737Z,100874.41
2022-12-25T11:49:13.345Z,100866.34
2022-12-25T11:51:46.189Z,100869.28
2022-12-25T11:54:30.235Z,100859.16
2022-12-25T11:57:02.696Z,100857.25
2022-12-25T11:59:41.540Z,100852.59
2022-12-25T12:02:34.969Z,100850.75
2022-12-25T12:05:26.246Z,100847.47
2022-12-25T12:08:01.090Z,100842.81
2022-12-25T12:11:16.261Z,100841.31
2022-12-25T12:14:30.289Z,100841.81
2022-12-25T12:16:57.672Z,100849.84
2022-12-25T12:19:31.510Z,100847.91
2022-12-25T12:22:04.055Z,100839.63
2022-12-25T12:24:43.814Z,100844.47
2022-12-25T12:27:10.931Z,100841.66
2022-12-25T12:29:49.636Z,100837.25
2022-12-25T12:32:48.805Z,100844.03
2022-12-25T12:35:39.929Z,100836.00
2022-12-25T12:38:17.867Z,100839.03
2022-12-25T12:41:07.010Z,100833.34
2022-12-25T12:43:58.791Z,100831.81
2022-12-25T12:46:35.172Z,100830.56
2022-12-25T12:49:32.790Z,100837.16
2022-12-25T12:52:32.099Z,100838.19
2022-12-25T12:55:14.953Z,100842.69
2022-12-25T12:57:42.875Z,100840.19
2022-12-25T13:00:21.181Z,100836.09
2022-12-25T13:03:13.129Z,100841.22
2022-12-25T13:05:50.825Z,100840.41
2022-12-25T13:09:04.696Z,100838.72
2022-12-25T13:11:41.927Z,100839.53
2022-12-25T13:14:23.388Z,100840.41
2022-12-25T13:16:54.238Z,100835.41
2022-12-25T13:19:26.818Z,100839.84
2022-12-25T13:21:58.437Z,100843.66
2022-12-25T13:24:36.258Z,100834.47
2022-12-25T13:27:44.661Z,100834.66
2022-12-25T13:30:20.291Z,100829.63
2022-12-25T13:32:49.178Z,100825.50
2022-12-25T13:35:17.825Z,100829.25
2022-12-25T13:37:45.672Z,100830.38
2022-12-25T13:40:27.481Z,100838.31
2022-12-25T13:43:00.970Z,100845.13
2022-12-25T13:45:31.535Z,100834.03
2022-12-25T13:48:14.988Z,100843.56
2022-12-25T13:50:48.382Z,100851.38
2022-12-25T13:53:20.426Z,100849.69
2022-12-25T13:55:52.951Z,100853.88
2022-12-25T13:58:39.535Z,100857.22
2022-12-25T14:01:07.348Z,100856.06
2022-12-25T14:03:46.283Z,100862.09
2022-12-25T14:06:30.730Z,100849.06
2022-12-25T14:08:59.652Z,100854.97
2022-12-25T14:11:29.982Z,100864.72
2022-12-25T14:14:04.227Z,100862.81
2022-12-25T14:16:32.051Z,100863.56
2022-12-25T14:19:02.885Z,100863.69
2022-12-25T14:21:49.356Z,100867.22
2022-12-25T14:24:25.344Z,100860.31
2022-12-25T14:27:17.637Z,100855.19
2022-12-25T14:29:48.031Z,100865.53
2022-12-25T14:32:26.684Z,100867.22
2022-12-25T14:35:03.383Z,100865.41
2022-12-25T14:37:34.166Z,100857.47
2022-12-25T14:40:28.546Z,100860.84
2022-12-25T14:43:06.207Z,100864.38
2022-12-25T14:45:40.580Z,100864.50
2022-12-25T14:48:30.322Z,100856.06
2022-12-25T14:51:06.189Z,100871.72
2022-12-25T14:53:58.510Z,100860.41
2022-12-25T14:56:29.273Z,100863.78
2022-12-25T14:58:59.829Z,100859.38
2022-12-25T15:01:35.895Z,100861.78
2022-12-25T15:04:16.176Z,100861.66
2022-12-25T15:07:07.203Z,100861.44
2022-12-25T15:09:35.963Z,100864.75
2022-12-25T15:12:03.501Z,100869.03
2022-12-25T15:14:31.471Z,100872.44
2022-12-25T15:17:01.638Z,100859.06
2022-12-25T15:19:38.106Z,100863.38
2022-12-25T15:22:09.186Z,100863.38
2022-12-25T15:24:36.685Z,100866.69
2022-12-25T15:27:05.421Z,100868.38
2022-12-25T15:30:07.831Z,100869.94
2022-12-25T15:32:23.662Z,100868.84
2022-12-25T15:34:51.187Z,100862.50
2022-12-25T15:37:19.228Z,100866.78
2022-12-25T15:39:50.016Z,100877.22
2022-12-25T15:42:23.492Z,100877.34
2022-12-25T15:44:51.862Z,100883.59
2022-12-25T15:47:23.076Z,100873.25
2022-12-25T15:49:50.319Z,100876.91
2022-12-25T15:52:18.289Z,100873.97
2022-12-25T15:54:45.658Z,100876.34
2022-12-25T15:57:22.061Z,100874.72
2022-12-25T15:59:49.701Z,100869.41
2022-12-25T16:02:21.062Z,100871.13
2022-12-25T16:04:53.987Z,100878.16
2022-12-25T16:07:25.121Z,100877.44
2022-12-25T16:09:52.840Z,100875.53
2022-12-25T16:12:21.238Z,100870.00
2022-12-25T16:14:49.471Z,100885.97
2022-12-25T16:17:17.082Z,100883.69
2022-12-25T16:19:45.372Z,100883.00
2022-12-25T16:22:31.882Z,100881.91
2022-12-25T16:25:01.086Z,100888.09
2022-12-25T16:27:28.451Z,100888.59
2022-12-25T16:29:56.497Z,100902.75
2022-12-25T16:32:23.736Z,100902.00
2022-12-25T16:34:51.232Z,100903.78
2022-12-25T16:37:18.914Z,100902.75
2022-12-25T16:39:46.485Z,100905.94
2022-12-25T16:42:14.005Z,100903.56
2022-12-25T16:44:41.758Z,100902.00
2022-12-25T16:47:09.140Z,100907.19
2022-12-25T16:49:36.520Z,100899.25
2022-12-25T16:52:04.160Z,100899.94
2022-12-25T16:54:31.631Z,100910.34
2022-12-25T16:57:00.235Z,100892.69
2022-12-25T16:59:30.130Z,100901.31
2022-12-25T17:01:57.810Z,100901.44
2022-12-25T17:04:25.433Z,100909.91
2022-12-25T17:06:53.080Z,100912.88
2022-12-25T17:09:20.802Z,100914.44
2022-12-25T17:11:48.306Z,100917.50
2022-12-25T17:14:15.625Z,100922.06
2022-12-25T17:16:42.861Z,100929.91
2022-12-25T17:19:22.657Z,100929.56
2022-12-25T17:21:52.194Z,100930.09
2022-12-25T17:24:19.602Z,100917.63
2022-12-25T17:26:47.745Z,100918.44
2022-12-25T17:29:21.409Z,100917.41
2022-12-25T17:31:50.025Z,100928.75
2022-12-25T17:34:17.429Z,100923.31
2022-12-25T17:36:44.935Z,100917.41
2022-12-25T17:39:12.535Z,100925.22
2022-12-25T17:41:40.008Z,100929.66
2022-12-25T17:44:07.302Z,100922.63
2022-12-25T17:46:34.614Z,100930.34
2022-12-25T17:49:03.159Z,100936.25
2022-12-25T17:51:31.626Z,100932.16
2022-12-25T17:54:03.351Z,100929.88
2022-12-25T17:56:32.529Z,100943.81
2022-12-25T17:59:06.680Z,100928.06
2022-12-25T18:01:37.652Z,100931.47
2022-12-25T18:04:06.511Z,100930.09
2022-12-25T18:06:36.958Z,100926.38
2022-12-25T18:09:06.148Z,100924.53
2022-12-25T18:11:36.942Z,100926.28
2022-12-25T18:14:06.816Z,100934.22
2022-12-25T18:16:40.118Z,100926.63
2022-12-25T18:19:08.274Z,100925.81
2022-12-25T18:21:35.914Z,100932.06
2022-12-25T18:24:06.465Z,100928.53
2022-12-25T18:26:34.492Z,100930.00
2022-12-25T18:29:01.968Z,100932.38
2022-12-25T18:31:32.991Z,100927.97
2022-12-25T18:34:05.638Z,100930.00
2022-12-25T18:36:37.006Z,100928.41
2022-12-25T18:39:04.586Z,100933.63
2022-12-25T18:41:51.979Z,100930.09
2022-12-25T18:44:19.208Z,100940.31
2022-12-25T18:46:46.563Z,100934.31
2022-12-25T18:49:14.945Z,100941.34
2022-12-25T18:51:42.207Z,100937.16
2022-12-25T18:54:09.427Z,100937.81
2022-12-25T18:56:36.776Z,100933.50
2022-12-25T18:59:04.229Z,100932.38
2022-12-25T19:01:31.789Z,100933.06
2022-12-25T19:04:04.458Z,100928.41
2022-12-25T19:06:33.368Z,100936.94
2022-12-25T19:09:09.062Z,100929.22
2022-12-25T19:11:45.897Z,100942.25
2022-12-25T19:14:14.666Z,100937.81
2022-12-25T19:16:41.992Z,100935.91
2022-12-25T19:19:09.448Z,100937.59
2022-12-25T19:21:37.741Z,100933.28
2022-12-25T19:24:06.039Z,100937.16
2022-12-25T19:26:34.065Z,100935.66
2022-12-25T19:29:03.291Z,100933.75
2022-12-25T19:31:30.931Z,100927.38
2022-12-25T19:33:58.217Z,100934.09
2022-12-25T19:36:25.493Z,100936.25
2022-12-25T19:38:52.833Z,100944.28
2022-12-25T19:41:20.230Z,100942.13
2022-12-25T19:43:49.374Z,100933.53
2022-12-25T19:46:37.916Z,100929.00
2022-12-25T19:49:06.181Z,100927.84
2022-12-25T19:51:40.570Z,100934.63
2022-12-25T19:54:12.632Z,100937.13
2022-12-25T19:56:41.024Z,100936.59
2022-12-25T19:59:08.683Z,100935.78
2022-12-25T20:01:36.124Z,100939.97
2022-12-25T20:04:03.619Z,100945.06
2022-12-25T20:06:33.619Z,100945.75
2022-12-25T20:09:21.086Z,100953.56
2022-12-25T20:11:49.155Z,100945.97
2022-12-25T20:14:17.558Z,100951.19
2022-12-25T20:16:45.751Z,100945.63
2022-12-25T20:19:15.932Z,100939.63
2022-12-25T20:21:43.274Z,100935.31
2022-12-25T20:24:11.182Z,100938.97
2022-12-25T20:26:43.556Z,100940.53
2022-12-25T20:29:14.148Z,100943.03
2022-12-25T20:31:41.485Z,100943.94
2022-12-25T20:34:11.873Z,100942.09
2022-12-25T20:36:42.384Z,100945.06
2022-12-25T20:39:12.757Z,100934.41
2022-12-25T20:41:44.408Z,100935.31
2022-12-25T20:44:13.226Z,100937.69
2022-12-25T20:46:40.896Z,100943.13
2022-12-25T20:49:10.241Z,100943.13
2022-12-25T20:51:40.157Z,100945.75
2022-12-25T20:54:11.068Z,100944.19
2022-12-25T20:56:38.681Z,100943.13
2022-12-25T20:59:06.265Z,100945.19
2022-12-25T21:01:33.854Z,100957.56
2022-12-25T21:04:01.600Z,100959.59
2022-12-25T21:06:29.235Z,100953.47
2022-12-25T21:08:56.910Z,100956.88
2022-12-25T21:11:30.419Z,100956.88
2022-12-25T21:14:00.351Z,100957.91
2022-12-25T21:16:28.110Z,100952.81
2022-12-25T21:18:55.474Z,100960.84
2022-12-25T21:21:23.302Z,100951.19
2022-12-25T21:23:51.046Z,100952.13
2022-12-25T21:26:24.231Z,100947.59
2022-12-25T21:28:57.239Z,100949.72
2022-12-25T21:31:25.563Z,100953.22
2022-12-25T21:33:55.340Z,100958.22
2022-12-25T21:36:34.445Z,100956.19
2022-12-25T21:39:08.389Z,100964.69
2022-12-25T21:41:43.226Z,100967.94
2022-12-25T21:44:19.339Z,100964.44
2022-12-25T21:46:46.748Z,100962.72
2022-12-25T21:49:35.342Z,100957.28
2022-12-25T21:52:09.865Z,100959.13
2022-12-25T21:54:38.999Z,100973.16
2022-12-25T21:57:19.735Z,100960.94
2022-12-25T21:59:48.447Z,100972.69
2022-12-25T22:02:19.172Z,100977.44
2022-12-25T22:04:49.489Z,100977.03
2022-12-25T22:07:19.568Z,100981.06
2022-12-25T22:09:51.510Z,100979.81
2022-12-25T22:12:39.853Z,100985.59
2022-12-25T22:15:10.420Z,100981.53
2022-12-25T22:18:00.537Z,100984.66
2022-12-25T22:20:38.179Z,100996.44
2022-12-25T22:23:05.914Z,100987.59
2022-12-25T22:25:33.218Z,101000.50
2022-12-25T22:28:00.694Z,100993.50
2022-12-25T22:30:31.084Z,100997.34
2022-12-25T22:33:02.756Z,101001.09
2022-12-25T22:35:33.860Z,101008.00
2022-12-25T22:38:03.979Z,100992.06
2022-12-25T22:40:36.550Z,100996.44
2022-12-25T22:43:03.832Z,100993.25
2022-12-25T22:45:31.209Z,100984.16
2022-12-25T22:47:58.635Z,100987.56
2022-12-25T22:50:33.353Z,100995.16
2022-12-25T22:53:02.779Z,100989.94
2022-12-25T22:55:32.288Z,100990.94
2022-12-25T22:58:02.922Z,100997.19
2022-12-25T23:00:33.045Z,100990.81
2022-12-25T23:03:00.467Z,100999.56
2022-12-25T23:05:28.031Z,100994.03
2022-12-25T23:07:59.481Z,100997.09
2022-12-25T23:10:49.496Z,100995.06
2022-12-25T23:13:38.991Z,100995.28
2022-12-25T23:16:13.295Z,100991.19
2022-12-25T23:18:59.425Z,101009.28
2022-12-25T23:22:07.789Z,101009.97
2022-12-25T23:24:53.808Z,101012.47
2022-12-25T23:27:28.701Z,101008.16
2022-12-25T23:29:59.354Z,101002.97
2022-12-25T23:32:29.933Z,101007.50
2022-12-25T23:34:57.182Z,101006.69
2022-12-25T23:37:28.142Z,101009.16
2022-12-25T23:39:59.661Z,101005.56
2022-12-25T23:42:30.012Z,100999.56
2022-12-25T23:45:03.210Z,100994.34
2022-12-25T23:47:30.978Z,100993.41
2022-12-25T23:50:00.116Z,100984.59
2022-12-25T23:52:27.526Z,100982.13
2022-12-25T23:54:54.993Z,100982.13
2022-12-25T23:57:25.333Z,100980.53
2022-12-25T23:59:52.615Z,100982.13
